sensor_id;sensor_type;location;lat;lon;timestamp;P1;durP1;ratioP1;P2;durP2;ratioP2
81952;SDS011;71454;55.476;14.282;2023-11-19T00:00:18;13.88;;;5.28;;
81952;SDS011;71454;55.476;14.282;2023-11-19T00:02:44;15.65;;;6.00;;
81952;SDS011;71454;55.476;14.282;2023-11-19T00:05:10;13.55;;;5.57;;
81952;SDS011;71454;55.476;14.282;2023-11-19T00:07:39;10.52;;;4.38;;
81952;SDS011;71454;55.476;14.282;2023-11-19T00:10:11;10.55;;;4.25;;
81952;SDS011;71454;55.476;14.282;2023-11-19T00:12:39;12.80;;;4.10;;
81952;SDS011;71454;55.476;14.282;2023-11-19T00:15:09;8.82;;;3.05;;
81952;SDS011;71454;55.476;14.282;2023-11-19T00:17:37;8.75;;;2.55;;
81952;SDS011;71454;55.476;14.282;2023-11-19T00:20:06;7.85;;;2.35;;
81952;SDS011;71454;55.476;14.282;2023-11-19T00:22:32;6.07;;;2.25;;
81952;SDS011;71454;55.476;14.282;2023-11-19T00:24:57;6.68;;;2.40;;
81952;SDS011;71454;55.476;14.282;2023-11-19T00:27:23;5.95;;;2.10;;
81952;SDS011;71454;55.476;14.282;2023-11-19T00:29:48;5.97;;;1.70;;
81952;SDS011;71454;55.476;14.282;2023-11-19T00:32:14;5.50;;;1.52;;
81952;SDS011;71454;55.476;14.282;2023-11-19T00:34:40;6.40;;;2.22;;
81952;SDS011;71454;55.476;14.282;2023-11-19T00:37:06;5.63;;;1.60;;
81952;SDS011;71454;55.476;14.282;2023-11-19T00:39:31;5.93;;;2.03;;
81952;SDS011;71454;55.476;14.282;2023-11-19T00:41:57;6.30;;;1.83;;
81952;SDS011;71454;55.476;14.282;2023-11-19T00:44:23;6.55;;;1.80;;
81952;SDS011;71454;55.476;14.282;2023-11-19T00:46:48;6.97;;;1.80;;
81952;SDS011;71454;55.476;14.282;2023-11-19T00:49:14;8.07;;;2.10;;
81952;SDS011;71454;55.476;14.282;2023-11-19T00:51:40;6.80;;;2.67;;
81952;SDS011;71454;55.476;14.282;2023-11-19T00:54:05;7.60;;;2.53;;
81952;SDS011;71454;55.476;14.282;2023-11-19T00:56:31;6.78;;;2.72;;
81952;SDS011;71454;55.476;14.282;2023-11-19T00:58:56;7.40;;;2.85;;
81952;SDS011;71454;55.476;14.282;2023-11-19T01:01:22;6.82;;;2.63;;
81952;SDS011;71454;55.476;14.282;2023-11-19T01:03:47;5.93;;;2.13;;
81952;SDS011;71454;55.476;14.282;2023-11-19T01:06:12;7.88;;;2.80;;
81952;SDS011;71454;55.476;14.282;2023-11-19T01:08:39;6.68;;;2.30;;
81952;SDS011;71454;55.476;14.282;2023-11-19T01:11:04;8.57;;;2.67;;
81952;SDS011;71454;55.476;14.282;2023-11-19T01:13:30;6.63;;;2.50;;
81952;SDS011;71454;55.476;14.282;2023-11-19T01:15:55;6.07;;;2.33;;
81952;SDS011;71454;55.476;14.282;2023-11-19T01:18:21;9.73;;;2.55;;
81952;SDS011;71454;55.476;14.282;2023-11-19T01:20:47;6.43;;;2.00;;
81952;SDS011;71454;55.476;14.282;2023-11-19T01:23:12;9.85;;;2.35;;
81952;SDS011;71454;55.476;14.282;2023-11-19T01:25:38;7.78;;;1.98;;
81952;SDS011;71454;55.476;14.282;2023-11-19T01:28:03;5.85;;;1.88;;
81952;SDS011;71454;55.476;14.282;2023-11-19T01:30:29;7.25;;;2.00;;
81952;SDS011;71454;55.476;14.282;2023-11-19T01:32:55;6.82;;;1.77;;
81952;SDS011;71454;55.476;14.282;2023-11-19T01:35:21;4.88;;;1.67;;
81952;SDS011;71454;55.476;14.282;2023-11-19T01:37:48;3.83;;;1.35;;
81952;SDS011;71454;55.476;14.282;2023-11-19T01:40:13;7.95;;;1.70;;
81952;SDS011;71454;55.476;14.282;2023-11-19T01:42:39;7.13;;;1.70;;
81952;SDS011;71454;55.476;14.282;2023-11-19T01:45:05;5.93;;;2.00;;
81952;SDS011;71454;55.476;14.282;2023-11-19T01:47:34;8.40;;;2.40;;
81952;SDS011;71454;55.476;14.282;2023-11-19T01:50:00;8.77;;;2.22;;
81952;SDS011;71454;55.476;14.282;2023-11-19T01:52:26;6.50;;;2.30;;
81952;SDS011;71454;55.476;14.282;2023-11-19T01:54:52;6.57;;;2.30;;
81952;SDS011;71454;55.476;14.282;2023-11-19T01:57:18;6.05;;;2.30;;
81952;SDS011;71454;55.476;14.282;2023-11-19T01:59:44;5.97;;;2.42;;
81952;SDS011;71454;55.476;14.282;2023-11-19T02:02:10;10.20;;;2.60;;
81952;SDS011;71454;55.476;14.282;2023-11-19T02:04:37;6.03;;;1.80;;
81952;SDS011;71454;55.476;14.282;2023-11-19T02:07:03;8.60;;;2.60;;
81952;SDS011;71454;55.476;14.282;2023-11-19T02:09:29;6.65;;;2.53;;
81952;SDS011;71454;55.476;14.282;2023-11-19T02:11:55;10.55;;;4.00;;
81952;SDS011;71454;55.476;14.282;2023-11-19T02:14:22;8.93;;;2.90;;
81952;SDS011;71454;55.476;14.282;2023-11-19T02:16:49;6.53;;;2.58;;
81952;SDS011;71454;55.476;14.282;2023-11-19T02:19:14;6.35;;;2.00;;
81952;SDS011;71454;55.476;14.282;2023-11-19T02:21:40;7.93;;;2.30;;
81952;SDS011;71454;55.476;14.282;2023-11-19T02:24:07;7.95;;;2.38;;
81952;SDS011;71454;55.476;14.282;2023-11-19T02:26:39;4.55;;;1.63;;
81952;SDS011;71454;55.476;14.282;2023-11-19T02:29:07;7.38;;;2.40;;
81952;SDS011;71454;55.476;14.282;2023-11-19T02:31:32;8.32;;;2.60;;
81952;SDS011;71454;55.476;14.282;2023-11-19T02:34:00;7.22;;;2.42;;
81952;SDS011;71454;55.476;14.282;2023-11-19T02:36:27;6.72;;;2.53;;
81952;SDS011;71454;55.476;14.282;2023-11-19T02:38:53;8.32;;;2.85;;
81952;SDS011;71454;55.476;14.282;2023-11-19T02:41:18;6.28;;;2.22;;
81952;SDS011;71454;55.476;14.282;2023-11-19T02:43:44;7.68;;;2.20;;
81952;SDS011;71454;55.476;14.282;2023-11-19T02:46:09;8.88;;;2.47;;
81952;SDS011;71454;55.476;14.282;2023-11-19T02:48:36;6.75;;;2.03;;
81952;SDS011;71454;55.476;14.282;2023-11-19T02:51:01;5.55;;;2.28;;
81952;SDS011;71454;55.476;14.282;2023-11-19T02:53:28;8.68;;;2.33;;
81952;SDS011;71454;55.476;14.282;2023-11-19T02:55:57;5.88;;;2.20;;
81952;SDS011;71454;55.476;14.282;2023-11-19T02:58:42;6.18;;;2.13;;
81952;SDS011;71454;55.476;14.282;2023-11-19T03:01:09;7.25;;;2.00;;
81952;SDS011;71454;55.476;14.282;2023-11-19T03:03:44;9.10;;;1.95;;
81952;SDS011;71454;55.476;14.282;2023-11-19T03:06:14;7.88;;;2.50;;
81952;SDS011;71454;55.476;14.282;2023-11-19T03:08:39;7.43;;;2.13;;
81952;SDS011;71454;55.476;14.282;2023-11-19T03:11:05;7.18;;;2.30;;
81952;SDS011;71454;55.476;14.282;2023-11-19T03:13:30;5.15;;;1.90;;
81952;SDS011;71454;55.476;14.282;2023-11-19T03:15:55;6.82;;;2.10;;
81952;SDS011;71454;55.476;14.282;2023-11-19T03:18:21;7.25;;;2.10;;
81952;SDS011;71454;55.476;14.282;2023-11-19T03:20:46;6.15;;;1.85;;
81952;SDS011;71454;55.476;14.282;2023-11-19T03:23:12;6.32;;;2.35;;
81952;SDS011;71454;55.476;14.282;2023-11-19T03:25:37;6.32;;;2.08;;
81952;SDS011;71454;55.476;14.282;2023-11-19T03:28:03;6.78;;;2.35;;
81952;SDS011;71454;55.476;14.282;2023-11-19T03:30:29;9.55;;;2.20;;
81952;SDS011;71454;55.476;14.282;2023-11-19T03:32:55;7.15;;;2.50;;
81952;SDS011;71454;55.476;14.282;2023-11-19T03:35:22;8.38;;;2.50;;
81952;SDS011;71454;55.476;14.282;2023-11-19T03:37:47;9.15;;;2.83;;
81952;SDS011;71454;55.476;14.282;2023-11-19T03:40:13;5.53;;;1.88;;
81952;SDS011;71454;55.476;14.282;2023-11-19T03:42:39;5.57;;;1.85;;
81952;SDS011;71454;55.476;14.282;2023-11-19T03:45:08;7.05;;;2.97;;
81952;SDS011;71454;55.476;14.282;2023-11-19T03:47:34;11.15;;;2.35;;
81952;SDS011;71454;55.476;14.282;2023-11-19T03:50:00;9.18;;;2.20;;
81952;SDS011;71454;55.476;14.282;2023-11-19T03:52:25;7.30;;;2.15;;
81952;SDS011;71454;55.476;14.282;2023-11-19T03:54:52;8.15;;;2.33;;
81952;SDS011;71454;55.476;14.282;2023-11-19T03:57:18;6.40;;;2.40;;
81952;SDS011;71454;55.476;14.282;2023-11-19T03:59:43;8.98;;;3.00;;
81952;SDS011;71454;55.476;14.282;2023-11-19T04:02:09;6.45;;;2.72;;
81952;SDS011;71454;55.476;14.282;2023-11-19T04:04:35;7.68;;;2.67;;
81952;SDS011;71454;55.476;14.282;2023-11-19T04:07:01;7.22;;;2.60;;
81952;SDS011;71454;55.476;14.282;2023-11-19T04:09:28;9.27;;;2.33;;
81952;SDS011;71454;55.476;14.282;2023-11-19T04:11:53;7.80;;;2.88;;
81952;SDS011;71454;55.476;14.282;2023-11-19T04:14:19;7.80;;;2.55;;
81952;SDS011;71454;55.476;14.282;2023-11-19T04:16:44;6.82;;;2.65;;
81952;SDS011;71454;55.476;14.282;2023-11-19T04:19:10;11.77;;;2.80;;
81952;SDS011;71454;55.476;14.282;2023-11-19T04:21:36;8.95;;;3.10;;
81952;SDS011;71454;55.476;14.282;2023-11-19T04:24:01;8.57;;;3.00;;
81952;SDS011;71454;55.476;14.282;2023-11-19T04:26:27;8.80;;;2.88;;
81952;SDS011;71454;55.476;14.282;2023-11-19T04:28:52;7.78;;;3.38;;
81952;SDS011;71454;55.476;14.282;2023-11-19T04:31:17;8.98;;;3.72;;
81952;SDS011;71454;55.476;14.282;2023-11-19T04:33:43;10.73;;;3.33;;
81952;SDS011;71454;55.476;14.282;2023-11-19T04:36:09;9.45;;;3.97;;
81952;SDS011;71454;55.476;14.282;2023-11-19T04:38:35;11.23;;;4.28;;
81952;SDS011;71454;55.476;14.282;2023-11-19T04:41:00;10.50;;;4.38;;
81952;SDS011;71454;55.476;14.282;2023-11-19T04:43:26;10.85;;;3.67;;
81952;SDS011;71454;55.476;14.282;2023-11-19T04:45:51;11.85;;;4.60;;
81952;SDS011;71454;55.476;14.282;2023-11-19T04:48:17;11.00;;;4.93;;
81952;SDS011;71454;55.476;14.282;2023-11-19T04:50:42;16.77;;;4.57;;
81952;SDS011;71454;55.476;14.282;2023-11-19T04:53:07;14.10;;;4.70;;
81952;SDS011;71454;55.476;14.282;2023-11-19T04:55:33;10.60;;;4.63;;
81952;SDS011;71454;55.476;14.282;2023-11-19T04:57:58;14.60;;;6.30;;
81952;SDS011;71454;55.476;14.282;2023-11-19T05:00:24;12.52;;;4.32;;
81952;SDS011;71454;55.476;14.282;2023-11-19T05:02:49;11.38;;;4.55;;
81952;SDS011;71454;55.476;14.282;2023-11-19T05:05:15;11.57;;;4.75;;
81952;SDS011;71454;55.476;14.282;2023-11-19T05:07:41;13.20;;;5.68;;
81952;SDS011;71454;55.476;14.282;2023-11-19T05:10:06;11.30;;;4.53;;
81952;SDS011;71454;55.476;14.282;2023-11-19T05:12:32;18.45;;;5.65;;
81952;SDS011;71454;55.476;14.282;2023-11-19T05:14:57;10.70;;;5.13;;
81952;SDS011;71454;55.476;14.282;2023-11-19T05:17:23;14.23;;;6.13;;
81952;SDS011;71454;55.476;14.282;2023-11-19T05:19:48;21.90;;;5.72;;
81952;SDS011;71454;55.476;14.282;2023-11-19T05:22:14;15.52;;;5.40;;
81952;SDS011;71454;55.476;14.282;2023-11-19T05:24:39;12.65;;;5.22;;
81952;SDS011;71454;55.476;14.282;2023-11-19T05:27:06;11.93;;;4.53;;
81952;SDS011;71454;55.476;14.282;2023-11-19T05:29:32;13.30;;;5.18;;
81952;SDS011;71454;55.476;14.282;2023-11-19T05:31:58;10.75;;;4.90;;
81952;SDS011;71454;55.476;14.282;2023-11-19T05:34:23;15.15;;;5.55;;
81952;SDS011;71454;55.476;14.282;2023-11-19T05:36:49;12.98;;;6.03;;
81952;SDS011;71454;55.476;14.282;2023-11-19T05:39:15;12.32;;;5.72;;
81952;SDS011;71454;55.476;14.282;2023-11-19T05:41:41;15.38;;;5.68;;
81952;SDS011;71454;55.476;14.282;2023-11-19T05:44:07;13.05;;;4.80;;
81952;SDS011;71454;55.476;14.282;2023-11-19T05:46:32;12.48;;;5.28;;
81952;SDS011;71454;55.476;14.282;2023-11-19T05:48:58;14.32;;;6.40;;
81952;SDS011;71454;55.476;14.282;2023-11-19T05:51:23;12.75;;;5.68;;
81952;SDS011;71454;55.476;14.282;2023-11-19T05:53:51;13.25;;;6.55;;
81952;SDS011;71454;55.476;14.282;2023-11-19T05:56:17;11.45;;;5.00;;
81952;SDS011;71454;55.476;14.282;2023-11-19T05:58:46;13.05;;;5.38;;
81952;SDS011;71454;55.476;14.282;2023-11-19T06:01:13;11.07;;;5.82;;
81952;SDS011;71454;55.476;14.282;2023-11-19T06:03:38;13.57;;;5.72;;
81952;SDS011;71454;55.476;14.282;2023-11-19T06:06:04;14.00;;;5.53;;
81952;SDS011;71454;55.476;14.282;2023-11-19T06:08:30;12.98;;;5.18;;
81952;SDS011;71454;55.476;14.282;2023-11-19T06:10:56;16.45;;;5.80;;
81952;SDS011;71454;55.476;14.282;2023-11-19T06:13:21;12.10;;;5.22;;
81952;SDS011;71454;55.476;14.282;2023-11-19T06:15:47;13.30;;;5.88;;
81952;SDS011;71454;55.476;14.282;2023-11-19T06:18:12;11.80;;;4.93;;
81952;SDS011;71454;55.476;14.282;2023-11-19T06:20:40;15.68;;;6.05;;
81952;SDS011;71454;55.476;14.282;2023-11-19T06:23:05;13.38;;;5.75;;
81952;SDS011;71454;55.476;14.282;2023-11-19T06:25:31;13.48;;;5.97;;
81952;SDS011;71454;55.476;14.282;2023-11-19T06:27:57;12.52;;;4.93;;
81952;SDS011;71454;55.476;14.282;2023-11-19T06:30:23;14.13;;;5.55;;
81952;SDS011;71454;55.476;14.282;2023-11-19T06:32:48;11.95;;;5.22;;
81952;SDS011;71454;55.476;14.282;2023-11-19T06:35:14;14.65;;;5.00;;
81952;SDS011;71454;55.476;14.282;2023-11-19T06:37:39;12.98;;;5.15;;
81952;SDS011;71454;55.476;14.282;2023-11-19T06:40:05;11.15;;;4.68;;
81952;SDS011;71454;55.476;14.282;2023-11-19T06:42:32;13.27;;;6.22;;
81952;SDS011;71454;55.476;14.282;2023-11-19T06:44:57;13.07;;;5.03;;
81952;SDS011;71454;55.476;14.282;2023-11-19T06:47:26;12.13;;;6.07;;
81952;SDS011;71454;55.476;14.282;2023-11-19T06:49:52;12.75;;;5.30;;
81952;SDS011;71454;55.476;14.282;2023-11-19T06:52:18;12.57;;;6.00;;
81952;SDS011;71454;55.476;14.282;2023-11-19T06:54:44;17.10;;;6.57;;
81952;SDS011;71454;55.476;14.282;2023-11-19T06:57:10;14.57;;;6.20;;
81952;SDS011;71454;55.476;14.282;2023-11-19T06:59:36;12.52;;;5.88;;
81952;SDS011;71454;55.476;14.282;2023-11-19T07:02:02;11.60;;;5.75;;
81952;SDS011;71454;55.476;14.282;2023-11-19T07:04:27;11.82;;;5.63;;
81952;SDS011;71454;55.476;14.282;2023-11-19T07:06:53;15.70;;;5.80;;
81952;SDS011;71454;55.476;14.282;2023-11-19T07:09:18;12.82;;;5.53;;
81952;SDS011;71454;55.476;14.282;2023-11-19T07:11:44;12.65;;;5.20;;
81952;SDS011;71454;55.476;14.282;2023-11-19T07:14:10;15.25;;;6.57;;
81952;SDS011;71454;55.476;14.282;2023-11-19T07:16:36;14.30;;;5.07;;
81952;SDS011;71454;55.476;14.282;2023-11-19T07:19:03;12.20;;;5.10;;
81952;SDS011;71454;55.476;14.282;2023-11-19T07:21:30;15.75;;;5.00;;
81952;SDS011;71454;55.476;14.282;2023-11-19T07:23:55;10.43;;;4.00;;
81952;SDS011;71454;55.476;14.282;2023-11-19T07:26:21;13.52;;;4.70;;
81952;SDS011;71454;55.476;14.282;2023-11-19T07:28:47;15.70;;;4.70;;
81952;SDS011;71454;55.476;14.282;2023-11-19T07:31:13;13.88;;;5.30;;
81952;SDS011;71454;55.476;14.282;2023-11-19T07:33:39;10.45;;;5.18;;
81952;SDS011;71454;55.476;14.282;2023-11-19T07:36:05;12.00;;;5.30;;
81952;SDS011;71454;55.476;14.282;2023-11-19T07:38:30;14.05;;;5.30;;
81952;SDS011;71454;55.476;14.282;2023-11-19T07:40:56;10.48;;;4.90;;
81952;SDS011;71454;55.476;14.282;2023-11-19T07:43:21;14.43;;;5.28;;
81952;SDS011;71454;55.476;14.282;2023-11-19T07:45:47;10.60;;;4.70;;
81952;SDS011;71454;55.476;14.282;2023-11-19T07:48:12;13.23;;;4.82;;
81952;SDS011;71454;55.476;14.282;2023-11-19T07:50:38;9.65;;;4.88;;
81952;SDS011;71454;55.476;14.282;2023-11-19T07:53:06;11.77;;;4.63;;
81952;SDS011;71454;55.476;14.282;2023-11-19T07:55:32;10.15;;;4.97;;
81952;SDS011;71454;55.476;14.282;2023-11-19T07:57:58;10.80;;;5.15;;
81952;SDS011;71454;55.476;14.282;2023-11-19T08:00:23;10.40;;;4.05;;
81952;SDS011;71454;55.476;14.282;2023-11-19T08:02:49;9.82;;;4.45;;
81952;SDS011;71454;55.476;14.282;2023-11-19T08:05:14;13.23;;;4.47;;
81952;SDS011;71454;55.476;14.282;2023-11-19T08:07:39;11.10;;;4.70;;
81952;SDS011;71454;55.476;14.282;2023-11-19T08:10:05;11.23;;;4.88;;
81952;SDS011;71454;55.476;14.282;2023-11-19T08:12:34;14.52;;;4.80;;
81952;SDS011;71454;55.476;14.282;2023-11-19T08:15:01;11.98;;;5.90;;
81952;SDS011;71454;55.476;14.282;2023-11-19T08:17:27;12.25;;;5.47;;
81952;SDS011;71454;55.476;14.282;2023-11-19T08:19:53;11.20;;;4.93;;
81952;SDS011;71454;55.476;14.282;2023-11-19T08:22:19;12.32;;;5.15;;
81952;SDS011;71454;55.476;14.282;2023-11-19T08:24:45;11.98;;;5.40;;
81952;SDS011;71454;55.476;14.282;2023-11-19T08:27:10;13.70;;;4.70;;
81952;SDS011;71454;55.476;14.282;2023-11-19T08:29:36;11.35;;;5.03;;
81952;SDS011;71454;55.476;14.282;2023-11-19T08:32:01;13.50;;;5.25;;
81952;SDS011;71454;55.476;14.282;2023-11-19T08:34:28;13.30;;;5.25;;
81952;SDS011;71454;55.476;14.282;2023-11-19T08:36:53;10.85;;;5.28;;
81952;SDS011;71454;55.476;14.282;2023-11-19T08:39:19;10.15;;;4.07;;
81952;SDS011;71454;55.476;14.282;2023-11-19T08:41:46;13.07;;;5.00;;
81952;SDS011;71454;55.476;14.282;2023-11-19T08:44:15;11.48;;;5.43;;
81952;SDS011;71454;55.476;14.282;2023-11-19T08:46:50;13.40;;;5.50;;
81952;SDS011;71454;55.476;14.282;2023-11-19T08:49:15;11.45;;;5.15;;
81952;SDS011;71454;55.476;14.282;2023-11-19T08:51:41;10.02;;;4.53;;
81952;SDS011;71454;55.476;14.282;2023-11-19T08:54:06;11.30;;;5.07;;
81952;SDS011;71454;55.476;14.282;2023-11-19T08:56:32;10.18;;;4.10;;
81952;SDS011;71454;55.476;14.282;2023-11-19T08:58:59;13.23;;;6.07;;
81952;SDS011;71454;55.476;14.282;2023-11-19T09:01:25;12.85;;;4.90;;
81952;SDS011;71454;55.476;14.282;2023-11-19T09:03:50;10.23;;;4.47;;
81952;SDS011;71454;55.476;14.282;2023-11-19T09:06:16;10.50;;;4.05;;
81952;SDS011;71454;55.476;14.282;2023-11-19T09:08:44;12.38;;;5.07;;
81952;SDS011;71454;55.476;14.282;2023-11-19T09:11:10;8.55;;;3.72;;
81952;SDS011;71454;55.476;14.282;2023-11-19T09:13:35;9.70;;;4.22;;
81952;SDS011;71454;55.476;14.282;2023-11-19T09:16:01;13.32;;;5.88;;
81952;SDS011;71454;55.476;14.282;2023-11-19T09:18:28;9.02;;;4.47;;
81952;SDS011;71454;55.476;14.282;2023-11-19T09:20:54;12.50;;;5.38;;
81952;SDS011;71454;55.476;14.282;2023-11-19T09:23:19;10.52;;;3.95;;
81952;SDS011;71454;55.476;14.282;2023-11-19T09:25:45;7.57;;;2.97;;
81952;SDS011;71454;55.476;14.282;2023-11-19T09:28:10;11.10;;;4.43;;
81952;SDS011;71454;55.476;14.282;2023-11-19T09:30:36;7.53;;;3.30;;
81952;SDS011;71454;55.476;14.282;2023-11-19T09:33:03;9.80;;;3.83;;
81952;SDS011;71454;55.476;14.282;2023-11-19T09:35:28;11.52;;;4.15;;
81952;SDS011;71454;55.476;14.282;2023-11-19T09:37:53;10.00;;;3.75;;
81952;SDS011;71454;55.476;14.282;2023-11-19T09:40:19;8.73;;;3.78;;
81952;SDS011;71454;55.476;14.282;2023-11-19T09:42:45;8.18;;;3.42;;
81952;SDS011;71454;55.476;14.282;2023-11-19T09:45:13;10.90;;;3.95;;
81952;SDS011;71454;55.476;14.282;2023-11-19T09:47:42;8.75;;;3.22;;
81952;SDS011;71454;55.476;14.282;2023-11-19T09:50:10;8.80;;;4.00;;
81952;SDS011;71454;55.476;14.282;2023-11-19T09:52:47;7.70;;;3.05;;
81952;SDS011;71454;55.476;14.282;2023-11-19T09:55:12;7.85;;;3.63;;
81952;SDS011;71454;55.476;14.282;2023-11-19T09:57:39;8.30;;;2.90;;
81952;SDS011;71454;55.476;14.282;2023-11-19T10:00:06;8.00;;;3.65;;
81952;SDS011;71454;55.476;14.282;2023-11-19T10:02:33;10.07;;;4.07;;
81952;SDS011;71454;55.476;14.282;2023-11-19T10:05:00;8.75;;;3.50;;
81952;SDS011;71454;55.476;14.282;2023-11-19T10:07:30;12.70;;;4.30;;
81952;SDS011;71454;55.476;14.282;2023-11-19T10:09:58;9.55;;;3.17;;
81952;SDS011;71454;55.476;14.282;2023-11-19T10:12:25;9.43;;;3.17;;
81952;SDS011;71454;55.476;14.282;2023-11-19T10:14:51;10.02;;;4.45;;
81952;SDS011;71454;55.476;14.282;2023-11-19T10:17:17;9.60;;;3.15;;
81952;SDS011;71454;55.476;14.282;2023-11-19T10:19:42;8.27;;;3.60;;
81952;SDS011;71454;55.476;14.282;2023-11-19T10:22:08;8.80;;;3.35;;
81952;SDS011;71454;55.476;14.282;2023-11-19T10:24:34;8.10;;;3.45;;
81952;SDS011;71454;55.476;14.282;2023-11-19T10:27:02;9.38;;;3.92;;
81952;SDS011;71454;55.476;14.282;2023-11-19T10:29:31;8.18;;;3.35;;
81952;SDS011;71454;55.476;14.282;2023-11-19T10:31:57;8.55;;;3.22;;
81952;SDS011;71454;55.476;14.282;2023-11-19T10:34:26;9.15;;;3.85;;
81952;SDS011;71454;55.476;14.282;2023-11-19T10:36:52;9.55;;;3.53;;
81952;SDS011;71454;55.476;14.282;2023-11-19T10:39:18;7.38;;;2.85;;
81952;SDS011;71454;55.476;14.282;2023-11-19T10:41:43;9.35;;;3.47;;
81952;SDS011;71454;55.476;14.282;2023-11-19T10:44:09;7.00;;;2.88;;
81952;SDS011;71454;55.476;14.282;2023-11-19T10:46:38;8.50;;;2.80;;
81952;SDS011;71454;55.476;14.282;2023-11-19T10:49:07;7.75;;;2.72;;
81952;SDS011;71454;55.476;14.282;2023-11-19T10:51:33;10.38;;;3.20;;
81952;SDS011;71454;55.476;14.282;2023-11-19T10:54:01;6.55;;;2.30;;
81952;SDS011;71454;55.476;14.282;2023-11-19T10:56:31;7.22;;;2.70;;
81952;SDS011;71454;55.476;14.282;2023-11-19T10:58:58;6.78;;;2.15;;
81952;SDS011;71454;55.476;14.282;2023-11-19T11:01:26;6.35;;;2.35;;
81952;SDS011;71454;55.476;14.282;2023-11-19T11:03:55;5.88;;;2.40;;
81952;SDS011;71454;55.476;14.282;2023-11-19T11:06:22;9.27;;;3.17;;
81952;SDS011;71454;55.476;14.282;2023-11-19T11:08:48;7.60;;;2.03;;
81952;SDS011;71454;55.476;14.282;2023-11-19T11:11:15;7.63;;;2.85;;
81952;SDS011;71454;55.476;14.282;2023-11-19T11:13:46;6.38;;;2.03;;
81952;SDS011;71454;55.476;14.282;2023-11-19T11:16:12;6.57;;;2.38;;
81952;SDS011;71454;55.476;14.282;2023-11-19T11:18:38;7.28;;;2.42;;
81952;SDS011;71454;55.476;14.282;2023-11-19T11:21:11;8.18;;;2.63;;
81952;SDS011;71454;55.476;14.282;2023-11-19T11:35:03;5.97;;;2.25;;
81952;SDS011;71454;55.476;14.282;2023-11-19T11:37:39;4.03;;;1.40;;
81952;SDS011;71454;55.476;14.282;2023-11-19T11:40:17;5.60;;;1.92;;
81952;SDS011;71454;55.476;14.282;2023-11-19T11:42:46;6.22;;;2.00;;
81952;SDS011;71454;55.476;14.282;2023-11-19T11:45:12;7.05;;;1.73;;
81952;SDS011;71454;55.476;14.282;2023-11-19T11:57:59;6.80;;;2.15;;
81952;SDS011;71454;55.476;14.282;2023-11-19T12:00:38;4.82;;;1.63;;
81952;SDS011;71454;55.476;14.282;2023-11-19T12:03:05;6.55;;;1.90;;
81952;SDS011;71454;55.476;14.282;2023-11-19T12:05:40;6.78;;;2.30;;
81952;SDS011;71454;55.476;14.282;2023-11-19T12:08:07;5.97;;;1.88;;
81952;SDS011;71454;55.476;14.282;2023-11-19T12:10:45;5.30;;;2.15;;
81952;SDS011;71454;55.476;14.282;2023-11-19T12:13:15;5.20;;;1.70;;
81952;SDS011;71454;55.476;14.282;2023-11-19T12:20:54;5.45;;;1.50;;
81952;SDS011;71454;55.476;14.282;2023-11-19T12:23:20;7.32;;;1.88;;
81952;SDS011;71454;55.476;14.282;2023-11-19T12:25:46;4.97;;;1.85;;
81952;SDS011;71454;55.476;14.282;2023-11-19T12:28:12;6.05;;;1.67;;
81952;SDS011;71454;55.476;14.282;2023-11-19T12:30:38;5.43;;;2.03;;
81952;SDS011;71454;55.476;14.282;2023-11-19T12:33:10;6.65;;;2.55;;
81952;SDS011;71454;55.476;14.282;2023-11-19T12:35:40;8.80;;;2.20;;
81952;SDS011;71454;55.476;14.282;2023-11-19T12:38:06;5.00;;;1.75;;
81952;SDS011;71454;55.476;14.282;2023-11-19T12:40:31;5.70;;;1.88;;
81952;SDS011;71454;55.476;14.282;2023-11-19T12:42:57;7.78;;;1.85;;
81952;SDS011;71454;55.476;14.282;2023-11-19T12:45:23;7.13;;;2.03;;
81952;SDS011;71454;55.476;14.282;2023-11-19T12:48:07;6.70;;;2.13;;
81952;SDS011;71454;55.476;14.282;2023-11-19T12:53:47;4.63;;;1.85;;
81952;SDS011;71454;55.476;14.282;2023-11-19T12:56:23;4.60;;;1.73;;
81952;SDS011;71454;55.476;14.282;2023-11-19T12:58:49;5.38;;;2.00;;
81952;SDS011;71454;55.476;14.282;2023-11-19T13:01:18;7.43;;;2.28;;
81952;SDS011;71454;55.476;14.282;2023-11-19T13:03:45;8.52;;;2.50;;
81952;SDS011;71454;55.476;14.282;2023-11-19T13:06:12;6.30;;;2.80;;
81952;SDS011;71454;55.476;14.282;2023-11-19T13:08:49;5.07;;;1.73;;
81952;SDS011;71454;55.476;14.282;2023-11-19T13:11:35;5.82;;;2.20;;
81952;SDS011;71454;55.476;14.282;2023-11-19T13:14:04;5.30;;;2.42;;
81952;SDS011;71454;55.476;14.282;2023-11-19T13:16:33;6.15;;;2.53;;
81952;SDS011;71454;55.476;14.282;2023-11-19T13:18:59;7.35;;;2.38;;
81952;SDS011;71454;55.476;14.282;2023-11-19T13:21:25;6.90;;;2.85;;
81952;SDS011;71454;55.476;14.282;2023-11-19T13:23:50;9.30;;;2.53;;
81952;SDS011;71454;55.476;14.282;2023-11-19T13:26:15;5.53;;;2.17;;
81952;SDS011;71454;55.476;14.282;2023-11-19T13:28:41;6.97;;;2.53;;
81952;SDS011;71454;55.476;14.282;2023-11-19T13:31:07;4.20;;;1.60;;
81952;SDS011;71454;55.476;14.282;2023-11-19T13:33:32;5.93;;;2.22;;
81952;SDS011;71454;55.476;14.282;2023-11-19T13:35:58;5.95;;;2.58;;
81952;SDS011;71454;55.476;14.282;2023-11-19T13:38:24;6.93;;;2.30;;
81952;SDS011;71454;55.476;14.282;2023-11-19T13:40:50;9.65;;;2.38;;
81952;SDS011;71454;55.476;14.282;2023-11-19T13:43:16;8.65;;;2.70;;
81952;SDS011;71454;55.476;14.282;2023-11-19T13:45:41;5.50;;;1.95;;
81952;SDS011;71454;55.476;14.282;2023-11-19T13:48:07;5.90;;;2.42;;
81952;SDS011;71454;55.476;14.282;2023-11-19T13:50:32;6.40;;;2.30;;
81952;SDS011;71454;55.476;14.282;2023-11-19T13:52:59;8.80;;;2.47;;
81952;SDS011;71454;55.476;14.282;2023-11-19T13:55:24;7.53;;;2.08;;
81952;SDS011;71454;55.476;14.282;2023-11-19T13:57:50;6.60;;;2.47;;
81952;SDS011;71454;55.476;14.282;2023-11-19T14:00:16;5.45;;;1.95;;
81952;SDS011;71454;55.476;14.282;2023-11-19T14:02:44;5.32;;;2.17;;
81952;SDS011;71454;55.476;14.282;2023-11-19T14:05:10;6.35;;;1.98;;
81952;SDS011;71454;55.476;14.282;2023-11-19T14:07:36;7.43;;;2.42;;
81952;SDS011;71454;55.476;14.282;2023-11-19T14:10:01;6.13;;;2.15;;
81952;SDS011;71454;55.476;14.282;2023-11-19T14:12:27;5.78;;;2.08;;
81952;SDS011;71454;55.476;14.282;2023-11-19T14:14:53;5.63;;;2.17;;
81952;SDS011;71454;55.476;14.282;2023-11-19T14:17:19;4.43;;;1.88;;
81952;SDS011;71454;55.476;14.282;2023-11-19T14:19:45;5.22;;;2.25;;
81952;SDS011;71454;55.476;14.282;2023-11-19T14:22:10;5.35;;;2.30;;
81952;SDS011;71454;55.476;14.282;2023-11-19T14:24:36;6.13;;;2.53;;
81952;SDS011;71454;55.476;14.282;2023-11-19T14:27:02;4.70;;;1.73;;
81952;SDS011;71454;55.476;14.282;2023-11-19T14:29:28;6.57;;;2.40;;
81952;SDS011;71454;55.476;14.282;2023-11-19T14:31:55;7.72;;;2.13;;
81952;SDS011;71454;55.476;14.282;2023-11-19T14:34:20;7.68;;;2.53;;
81952;SDS011;71454;55.476;14.282;2023-11-19T14:36:46;5.45;;;2.13;;
81952;SDS011;71454;55.476;14.282;2023-11-19T14:39:12;8.32;;;2.38;;
81952;SDS011;71454;55.476;14.282;2023-11-19T14:41:38;6.15;;;2.28;;
81952;SDS011;71454;55.476;14.282;2023-11-19T14:44:04;5.18;;;1.92;;
81952;SDS011;71454;55.476;14.282;2023-11-19T14:46:30;5.55;;;2.00;;
81952;SDS011;71454;55.476;14.282;2023-11-19T14:48:56;7.10;;;2.38;;
81952;SDS011;71454;55.476;14.282;2023-11-19T14:51:21;7.28;;;2.95;;
81952;SDS011;71454;55.476;14.282;2023-11-19T14:53:46;5.70;;;2.15;;
81952;SDS011;71454;55.476;14.282;2023-11-19T14:56:12;7.72;;;2.13;;